createdAt,value
2019-03-19T00:00:03.350Z,7.58
2019-03-19T00:02:34.288Z,8.95
2019-03-19T00:05:04.013Z,7.85
2019-03-19T00:07:34.462Z,8.93
2019-03-19T00:10:04.685Z,9.13
2019-03-19T00:12:36.210Z,8.38
2019-03-19T00:15:08.200Z,6.90
2019-03-19T00:17:38.031Z,6.95
2019-03-19T00:20:08.619Z,7.80
2019-03-19T00:22:38.353Z,6.85
2019-03-19T00:25:08.663Z,7.30
2019-03-19T00:27:39.049Z,6.75
2019-03-19T00:30:09.339Z,7.90
2019-03-19T00:32:41.565Z,7.78
2019-03-19T00:35:11.336Z,8.07
2019-03-19T00:37:41.512Z,8.75
2019-03-19T00:40:11.563Z,7.87
2019-03-19T00:42:43.489Z,7.28
2019-03-19T00:45:13.404Z,7.30
2019-03-19T00:47:43.482Z,7.12
2019-03-19T00:50:16.260Z,7.22
2019-03-19T00:52:46.694Z,7.42
2019-03-19T00:55:16.542Z,7.12
2019-03-19T00:57:46.292Z,6.50
2019-03-19T01:00:17.863Z,6.78
2019-03-19T01:02:47.678Z,6.87
2019-03-19T01:05:18.536Z,7.22
2019-03-19T01:07:49.046Z,8.30
2019-03-19T01:10:18.870Z,8.00
2019-03-19T01:12:49.039Z,9.45
2019-03-19T01:15:18.875Z,7.60
2019-03-19T01:17:50.413Z,7.13
2019-03-19T01:20:20.681Z,6.97
2019-03-19T01:22:52.406Z,7.05
2019-03-19T01:25:28.309Z,6.35
2019-03-19T01:27:58.121Z,7.15
2019-03-19T01:30:27.994Z,6.58
2019-03-19T01:32:58.521Z,7.05
2019-03-19T01:35:28.271Z,7.10
2019-03-19T01:37:57.923Z,7.90
2019-03-19T01:40:31.597Z,7.47
2019-03-19T01:43:01.460Z,8.30
2019-03-19T01:45:31.670Z,7.42
2019-03-19T01:48:01.607Z,6.97
2019-03-19T01:50:31.974Z,7.67
2019-03-19T01:53:02.180Z,8.03
2019-03-19T01:55:32.238Z,8.03
2019-03-19T01:58:04.131Z,8.43
2019-03-19T02:00:34.051Z,7.67
2019-03-19T02:03:04.588Z,7.62
2019-03-19T02:05:37.186Z,7.58
2019-03-19T02:08:08.035Z,7.53
2019-03-19T02:10:38.014Z,6.72
2019-03-19T02:13:10.774Z,6.95
2019-03-19T02:15:42.724Z,7.72
2019-03-19T02:18:13.233Z,7.30
2019-03-19T02:20:43.914Z,7.20
2019-03-19T02:23:13.639Z,7.85
2019-03-19T02:25:43.551Z,8.78
2019-03-19T02:28:13.451Z,8.38
2019-03-19T02:30:45.363Z,8.10
2019-03-19T02:33:15.303Z,8.68
2019-03-19T02:35:45.065Z,8.50
2019-03-19T02:38:14.916Z,9.10
2019-03-19T02:40:50.256Z,9.40
2019-03-19T02:43:22.722Z,9.10
2019-03-19T02:45:57.279Z,8.47
2019-03-19T02:48:27.520Z,9.53
2019-03-19T02:50:57.296Z,8.80
2019-03-19T02:53:29.618Z,8.73
2019-03-19T02:55:59.527Z,8.57
2019-03-19T02:58:29.563Z,8.68
2019-03-19T03:00:59.386Z,8.60
2019-03-19T03:03:29.286Z,9.85
2019-03-19T03:05:59.023Z,9.70
2019-03-19T03:08:28.719Z,9.80
2019-03-19T03:11:00.080Z,9.93
2019-03-19T03:13:31.506Z,11.10
2019-03-19T03:16:01.712Z,10.38
2019-03-19T03:18:31.813Z,10.00
2019-03-19T03:21:02.065Z,9.98
2019-03-19T03:23:31.845Z,10.30
2019-03-19T03:26:02.109Z,10.28
2019-03-19T03:28:31.824Z,10.45
2019-03-19T03:31:02.149Z,11.17
2019-03-19T03:33:32.276Z,12.03
2019-03-19T03:36:02.394Z,11.20
2019-03-19T03:38:33.213Z,11.83
2019-03-19T03:41:04.101Z,10.73
2019-03-19T03:43:33.927Z,11.47
2019-03-19T03:46:07.994Z,11.85
2019-03-19T03:48:41.189Z,12.20
2019-03-19T03:51:10.916Z,11.40
2019-03-19T03:54:01.361Z,11.70
2019-03-19T03:56:31.210Z,12.07
2019-03-19T03:59:02.355Z,11.63
2019-03-19T04:01:38.481Z,13.03
2019-03-19T04:04:11.606Z,13.20
2019-03-19T04:06:41.357Z,12.28
2019-03-19T04:09:12.078Z,11.40
2019-03-19T04:11:41.970Z,11.22
2019-03-19T04:17:37.754Z,11.50
2019-03-19T04:20:09.687Z,9.63
2019-03-19T04:22:42.354Z,11.03
2019-03-19T04:25:12.697Z,10.13
2019-03-19T04:27:44.778Z,10.32
2019-03-19T04:30:15.185Z,11.20
2019-03-19T04:32:45.031Z,11.83
2019-03-19T04:35:14.959Z,12.40
2019-03-19T04:37:44.814Z,11.97
2019-03-19T04:40:15.734Z,12.30
2019-03-19T04:42:45.985Z,14.63
2019-03-19T04:45:20.413Z,12.95
2019-03-19T04:47:55.234Z,13.10
2019-03-19T04:50:25.804Z,14.27
2019-03-19T04:52:58.778Z,14.47
2019-03-19T04:55:28.484Z,16.07
2019-03-19T04:57:59.069Z,15.48
2019-03-19T05:00:29.326Z,15.35
2019-03-19T05:03:09.531Z,16.25
2019-03-19T05:05:49.077Z,15.40
2019-03-19T05:08:19.492Z,15.95
2019-03-19T05:10:59.377Z,16.02
2019-03-19T05:13:29.052Z,15.13
2019-03-19T05:16:02.031Z,15.58
2019-03-19T05:18:35.526Z,15.80
2019-03-19T05:21:14.473Z,14.25
2019-03-19T05:23:45.995Z,15.08
2019-03-19T05:26:15.969Z,14.13
2019-03-19T05:28:49.959Z,14.90
2019-03-19T05:31:19.823Z,14.83
2019-03-19T05:33:49.558Z,15.70
2019-03-19T05:36:24.225Z,17.52
2019-03-19T05:38:53.871Z,15.15
2019-03-19T05:41:24.032Z,14.73
2019-03-19T05:44:03.560Z,14.65
2019-03-19T05:46:53.107Z,14.07
2019-03-19T05:49:29.696Z,14.53
2019-03-19T05:52:04.237Z,13.83
2019-03-19T05:54:37.347Z,14.10
2019-03-19T05:57:07.673Z,16.27
2019-03-19T05:59:44.602Z,15.23
2019-03-19T06:02:17.514Z,15.50
2019-03-19T06:04:47.959Z,15.48
2019-03-19T06:07:17.699Z,19.27
2019-03-19T06:09:50.036Z,16.57
2019-03-19T06:12:21.219Z,15.90
2019-03-19T06:14:52.499Z,14.23
2019-03-19T06:17:22.682Z,14.70
2019-03-19T06:19:56.800Z,15.90
2019-03-19T06:22:47.688Z,16.07
2019-03-19T06:25:23.115Z,19.17
2019-03-19T06:28:00.862Z,25.48
2019-03-19T06:30:39.930Z,19.00
2019-03-19T06:33:23.200Z,18.00
2019-03-19T06:35:53.300Z,17.02
2019-03-19T06:38:23.349Z,17.62
2019-03-19T06:40:57.422Z,18.12
2019-03-19T06:43:31.033Z,17.55
2019-03-19T06:46:04.414Z,17.90
2019-03-19T06:48:34.305Z,16.25
2019-03-19T06:51:04.224Z,16.40
2019-03-19T06:53:39.967Z,17.13
2019-03-19T06:56:09.830Z,16.90
2019-03-19T06:58:39.689Z,15.40
2019-03-19T07:01:11.638Z,16.93
2019-03-19T07:03:45.604Z,17.00
2019-03-19T07:06:27.481Z,14.87
2019-03-19T07:08:57.833Z,13.05
2019-03-19T07:11:27.736Z,13.00
2019-03-19T07:13:58.223Z,13.30
2019-03-19T07:16:30.482Z,13.83
2019-03-19T07:19:06.903Z,13.78
2019-03-19T07:21:46.815Z,14.28
2019-03-19T07:24:17.552Z,13.58
2019-03-19T07:26:47.259Z,13.58
2019-03-19T07:29:17.046Z,13.25
2019-03-19T07:31:47.754Z,13.35
2019-03-19T07:34:19.181Z,14.18
2019-03-19T07:36:49.243Z,14.18
2019-03-19T07:39:21.558Z,14.43
2019-03-19T07:41:52.538Z,14.10
2019-03-19T07:44:23.119Z,15.03
2019-03-19T07:46:53.384Z,22.32
2019-03-19T07:49:24.304Z,14.85
2019-03-19T07:52:00.162Z,14.20
2019-03-19T07:54:31.598Z,13.60
2019-03-19T07:57:01.765Z,15.93
2019-03-19T07:59:32.291Z,14.18
2019-03-19T08:02:04.330Z,14.53
2019-03-19T08:04:43.358Z,14.23
2019-03-19T08:07:13.823Z,13.78
2019-03-19T08:09:47.531Z,14.68
2019-03-19T08:12:17.364Z,13.78
2019-03-19T08:14:48.031Z,14.80
2019-03-19T08:17:17.870Z,15.57
2019-03-19T08:19:53.023Z,15.30
2019-03-19T08:22:22.897Z,15.03
2019-03-19T08:24:58.344Z,15.25
2019-03-19T08:27:28.504Z,15.08
2019-03-19T08:29:58.465Z,15.30
2019-03-19T08:32:28.669Z,14.50
2019-03-19T08:34:58.544Z,14.87
2019-03-19T08:37:28.671Z,15.28
2019-03-19T08:39:59.173Z,15.08
2019-03-19T08:42:29.286Z,15.70
2019-03-19T08:44:59.011Z,15.53
2019-03-19T08:47:29.014Z,15.95
2019-03-19T08:49:59.209Z,16.37
2019-03-19T08:52:30.203Z,16.62
2019-03-19T08:55:00.333Z,17.37
2019-03-19T08:57:30.229Z,17.00
2019-03-19T09:00:02.506Z,16.90
2019-03-19T09:02:32.435Z,16.45
2019-03-19T09:05:03.168Z,16.20
2019-03-19T09:07:33.075Z,15.90
2019-03-19T09:10:03.195Z,16.05
2019-03-19T09:12:32.960Z,15.53
2019-03-19T09:15:03.624Z,15.88
2019-03-19T09:17:33.604Z,15.70
2019-03-19T09:20:03.600Z,16.25
2019-03-19T09:22:33.549Z,15.90
2019-03-19T09:25:04.025Z,15.25
2019-03-19T09:27:38.312Z,15.48
2019-03-19T09:30:11.665Z,16.40
2019-03-19T09:32:42.078Z,16.32
2019-03-19T09:35:12.307Z,16.27
2019-03-19T09:37:44.822Z,15.32
2019-03-19T09:40:13.972Z,15.20
2019-03-19T09:42:43.834Z,14.40
2019-03-19T09:45:13.915Z,16.12
2019-03-19T09:47:43.843Z,15.32
2019-03-19T09:50:15.067Z,14.60
2019-03-19T09:52:45.500Z,14.13
2019-03-19T09:55:15.412Z,14.60
2019-03-19T09:57:45.583Z,13.80
2019-03-19T10:00:16.309Z,13.00
2019-03-19T10:02:46.424Z,13.08
2019-03-19T10:05:16.313Z,12.85
2019-03-19T10:07:46.261Z,13.58
2019-03-19T10:10:16.345Z,14.43
2019-03-19T10:12:46.497Z,15.00
2019-03-19T10:15:16.541Z,13.73
2019-03-19T10:17:47.211Z,12.80
2019-03-19T10:20:18.072Z,13.30
2019-03-19T10:22:48.595Z,14.15
2019-03-19T10:25:22.692Z,13.95
2019-03-19T10:27:56.669Z,14.00
2019-03-19T10:30:42.750Z,13.00
2019-03-19T10:33:12.667Z,12.93
2019-03-19T10:35:42.581Z,9.33
2019-03-19T10:38:12.401Z,9.93
2019-03-19T10:40:42.134Z,9.63
2019-03-19T10:43:12.915Z,9.30
2019-03-19T10:45:44.263Z,9.40
2019-03-19T10:48:14.232Z,8.98
2019-03-19T10:50:55.791Z,9.03
2019-03-19T10:53:29.559Z,9.93
2019-03-19T10:56:00.169Z,9.20
2019-03-19T10:58:31.133Z,9.45
2019-03-19T11:01:01.549Z,10.00
2019-03-19T11:03:31.404Z,10.38
2019-03-19T11:06:01.107Z,10.08
2019-03-19T11:08:30.868Z,10.05
2019-03-19T11:11:00.738Z,10.35
2019-03-19T11:13:30.501Z,9.83
2019-03-19T11:16:00.760Z,10.43
2019-03-19T11:18:32.739Z,11.90
2019-03-19T11:21:07.556Z,12.03
2019-03-19T11:23:37.891Z,10.45
2019-03-19T11:26:08.000Z,11.15
2019-03-19T11:28:38.126Z,10.85
2019-03-19T11:31:08.147Z,11.00
2019-03-19T11:33:43.269Z,11.33
2019-03-19T11:36:22.551Z,11.93
2019-03-19T11:38:53.298Z,13.60
2019-03-19T11:41:23.057Z,11.45
2019-03-19T11:43:52.821Z,11.60
2019-03-19T11:46:23.050Z,6.50
2019-03-19T11:48:52.864Z,7.37
2019-03-19T11:51:22.621Z,10.30
2019-03-19T11:54:19.872Z,13.07
2019-03-19T11:56:58.984Z,12.00
2019-03-19T11:59:33.141Z,14.30
2019-03-19T12:02:02.872Z,12.47
2019-03-19T12:04:32.582Z,14.65
2019-03-19T12:07:05.976Z,13.05
2019-03-19T12:09:35.875Z,12.55
2019-03-19T12:12:05.572Z,12.13
2019-03-19T12:14:35.361Z,12.63
2019-03-19T12:17:18.920Z,11.15
2019-03-19T12:19:50.103Z,11.22
2019-03-19T12:22:25.713Z,12.63
2019-03-19T12:24:59.776Z,10.68
2019-03-19T12:27:34.778Z,11.12
2019-03-19T12:30:06.002Z,8.70
2019-03-19T12:32:37.287Z,7.62
2019-03-19T12:35:08.472Z,8.00
2019-03-19T12:37:41.108Z,9.00
2019-03-19T12:40:11.734Z,8.53
2019-03-19T12:42:41.684Z,8.58
2019-03-19T12:45:12.590Z,8.63
2019-03-19T12:47:43.337Z,12.53
2019-03-19T12:50:14.710Z,11.20
2019-03-19T12:52:45.218Z,11.73
2019-03-19T12:55:15.944Z,10.25
2019-03-19T12:57:45.817Z,11.13
2019-03-19T13:00:16.410Z,11.05
2019-03-19T13:02:46.368Z,10.65
2019-03-19T13:05:16.228Z,9.00
2019-03-19T13:07:48.418Z,9.28
2019-03-19T13:10:18.879Z,8.08
2019-03-19T13:12:49.191Z,8.10
2019-03-19T13:15:19.527Z,8.38
2019-03-19T13:17:53.741Z,7.37
2019-03-19T13:20:28.965Z,8.33
2019-03-19T13:23:03.973Z,7.80
2019-03-19T13:25:38.793Z,7.97
2019-03-19T13:28:09.547Z,7.00
2019-03-19T13:30:44.951Z,6.55
2019-03-19T13:33:11.265Z,7.03
2019-03-19T13:35:41.357Z,6.97
2019-03-19T13:38:12.679Z,6.45
2019-03-19T13:40:43.031Z,6.60
2019-03-19T13:43:15.376Z,6.73
2019-03-19T13:45:46.944Z,6.55
2019-03-19T13:48:16.898Z,6.15
2019-03-19T13:50:47.202Z,6.45
2019-03-19T13:53:17.303Z,6.50
2019-03-19T13:55:47.642Z,6.15
2019-03-19T13:58:17.362Z,6.15
2019-03-19T14:00:55.318Z,6.50
2019-03-19T14:03:18.654Z,6.20
2019-03-19T14:05:48.541Z,6.70
2019-03-19T14:08:18.435Z,7.07
2019-03-19T14:10:50.594Z,6.53
2019-03-19T14:13:21.256Z,6.00
2019-03-19T14:15:51.243Z,5.20
2019-03-19T14:18:25.785Z,4.57
2019-03-19T14:21:04.571Z,4.40
2019-03-19T14:23:35.025Z,4.47
2019-03-19T14:26:04.953Z,5.15
2019-03-19T14:28:34.675Z,4.50
2019-03-19T14:31:08.818Z,5.00
2019-03-19T14:33:36.142Z,5.20
2019-03-19T14:36:05.838Z,4.45
2019-03-19T14:38:46.512Z,4.70
2019-03-19T14:41:07.100Z,4.53
2019-03-19T14:43:37.213Z,4.55
2019-03-19T14:46:07.498Z,4.58
2019-03-19T14:48:37.294Z,4.60
2019-03-19T14:51:06.980Z,4.60
2019-03-19T14:53:36.935Z,4.85
2019-03-19T14:56:07.433Z,4.70
2019-03-19T14:58:37.345Z,4.97
2019-03-19T15:01:07.092Z,5.33
2019-03-19T15:03:37.295Z,5.00
2019-03-19T15:06:12.433Z,5.85
2019-03-19T15:08:47.986Z,5.65
2019-03-19T15:11:18.953Z,6.92
2019-03-19T15:13:48.927Z,5.20
2019-03-19T15:16:19.031Z,5.15
2019-03-19T15:18:48.876Z,5.30
2019-03-19T15:21:18.568Z,5.53
2019-03-19T15:23:48.749Z,5.08
2019-03-19T15:26:18.699Z,6.70
2019-03-19T15:28:48.892Z,4.62
2019-03-19T15:31:29.417Z,5.25
2019-03-19T15:33:51.122Z,5.30
2019-03-19T15:36:21.028Z,5.40
2019-03-19T15:38:50.832Z,5.40
2019-03-19T15:41:20.871Z,5.85
2019-03-19T15:43:51.239Z,5.00
2019-03-19T15:46:21.100Z,5.00
2019-03-19T15:48:50.879Z,4.60
2019-03-19T15:51:25.273Z,4.87
2019-03-19T15:54:20.549Z,5.47
2019-03-19T15:56:53.254Z,5.17
2019-03-19T15:59:24.141Z,5.00
2019-03-19T16:01:54.155Z,4.65
2019-03-19T16:04:24.012Z,4.95
2019-03-19T16:06:57.805Z,4.85
2019-03-19T16:09:29.109Z,5.42
2019-03-19T16:11:59.075Z,4.60
2019-03-19T16:14:29.008Z,4.85
2019-03-19T16:16:58.756Z,4.95
2019-03-19T16:19:28.569Z,5.20
2019-03-19T16:21:58.807Z,4.97
2019-03-19T16:24:28.455Z,4.67
2019-03-19T16:26:58.987Z,4.60
2019-03-19T16:29:28.773Z,5.10
2019-03-19T16:31:58.879Z,5.30
2019-03-19T16:34:28.938Z,5.17
2019-03-19T16:36:59.095Z,5.00
2019-03-19T16:39:29.389Z,5.65
2019-03-19T16:41:59.147Z,5.55
2019-03-19T16:44:29.161Z,4.90
2019-03-19T16:46:59.085Z,5.33
2019-03-19T16:49:28.852Z,5.25
2019-03-19T16:51:58.814Z,5.50
2019-03-19T16:54:28.621Z,7.12
2019-03-19T16:56:59.015Z,4.53
2019-03-19T16:59:29.233Z,4.95
2019-03-19T17:02:01.693Z,5.05
2019-03-19T17:04:30.300Z,5.00
2019-03-19T17:07:00.340Z,5.85
2019-03-19T17:09:30.322Z,5.67
2019-03-19T17:12:00.970Z,5.85
2019-03-19T17:14:32.702Z,5.95
2019-03-19T17:17:02.423Z,6.20
2019-03-19T17:19:32.240Z,6.30
2019-03-19T17:22:02.082Z,5.25
2019-03-19T17:24:31.978Z,5.07
2019-03-19T17:27:01.888Z,5.37
2019-03-19T17:29:32.205Z,5.08
2019-03-19T17:32:12.191Z,5.58
2019-03-19T17:34:33.775Z,5.90
2019-03-19T17:37:03.650Z,6.07
2019-03-19T17:39:33.526Z,5.70
2019-03-19T17:42:03.493Z,5.62
2019-03-19T17:44:33.308Z,5.85
2019-03-19T17:47:03.387Z,5.30
2019-03-19T17:49:33.507Z,5.60
2019-03-19T17:52:04.157Z,6.90
2019-03-19T17:54:34.440Z,6.50
2019-03-19T17:57:05.110Z,10.15
2019-03-19T17:59:35.351Z,12.10
2019-03-19T18:02:05.017Z,12.23
2019-03-19T18:04:36.001Z,15.10
2019-03-19T18:07:10.527Z,9.78
2019-03-19T18:09:44.593Z,9.45
2019-03-19T18:12:15.564Z,7.20
2019-03-19T18:14:45.453Z,7.00
2019-03-19T18:17:15.355Z,7.58
2019-03-19T18:19:48.655Z,7.67
2019-03-19T18:22:24.749Z,7.67
2019-03-19T18:24:56.792Z,7.70
2019-03-19T18:27:27.444Z,6.90
2019-03-19T18:29:57.483Z,7.22
2019-03-19T18:32:35.078Z,7.17
2019-03-19T18:34:59.166Z,7.60
2019-03-19T18:37:34.171Z,7.35
2019-03-19T18:40:04.681Z,7.53
2019-03-19T18:42:34.932Z,7.33
2019-03-19T18:45:06.243Z,8.60
2019-03-19T18:47:35.975Z,7.47
2019-03-19T18:50:06.513Z,7.72
2019-03-19T18:52:36.419Z,6.97
2019-03-19T18:55:06.737Z,12.88
2019-03-19T18:57:36.916Z,8.60
2019-03-19T19:00:07.919Z,10.33
2019-03-19T19:02:48.774Z,7.72
2019-03-19T19:05:09.602Z,8.78
2019-03-19T19:07:39.490Z,8.13
2019-03-19T19:10:10.467Z,8.40
2019-03-19T19:12:40.284Z,8.73
2019-03-19T19:15:11.230Z,18.27
2019-03-19T19:17:40.994Z,27.52
2019-03-19T19:20:10.997Z,11.55
2019-03-19T19:22:40.990Z,11.33
2019-03-19T19:25:13.768Z,8.63
2019-03-19T19:27:44.083Z,8.33
2019-03-19T19:30:16.339Z,7.42
2019-03-19T19:32:46.064Z,7.47
2019-03-19T19:35:16.183Z,7.00
2019-03-19T19:37:46.305Z,10.03
2019-03-19T19:40:16.127Z,7.65
2019-03-19T19:42:45.941Z,7.33
2019-03-19T19:45:16.412Z,7.20
2019-03-19T19:47:51.978Z,8.48
2019-03-19T19:50:24.539Z,7.85
2019-03-19T19:52:56.215Z,7.22
2019-03-19T19:55:25.987Z,6.83
2019-03-19T19:57:56.426Z,7.60
2019-03-19T20:00:27.539Z,8.05
2019-03-19T20:02:57.714Z,7.37
2019-03-19T20:05:27.653Z,8.78
2019-03-19T20:07:57.442Z,7.28
2019-03-19T20:10:27.273Z,7.67
2019-03-19T20:12:57.482Z,7.27
2019-03-19T20:15:27.603Z,6.95
2019-03-19T20:17:57.880Z,7.10
2019-03-19T20:20:28.707Z,7.65
2019-03-19T20:22:59.143Z,8.23
2019-03-19T20:25:29.467Z,7.50
2019-03-19T20:27:59.658Z,7.00
2019-03-19T20:30:29.577Z,6.92
2019-03-19T20:33:00.371Z,7.42
2019-03-19T20:35:30.378Z,7.90
2019-03-19T20:38:00.058Z,7.78
2019-03-19T20:40:30.451Z,8.03
2019-03-19T20:43:00.286Z,7.22
2019-03-19T20:45:30.193Z,11.28
2019-03-19T20:48:00.169Z,13.93
2019-03-19T20:50:30.146Z,17.52
2019-03-19T20:52:59.971Z,14.50
2019-03-19T20:55:30.207Z,12.98
2019-03-19T20:58:00.425Z,8.40
2019-03-19T21:00:30.904Z,8.37
2019-03-19T21:03:00.844Z,8.78
2019-03-19T21:05:30.818Z,7.25
2019-03-19T21:08:01.913Z,7.57
2019-03-19T21:10:31.798Z,7.37
2019-03-19T21:13:02.144Z,6.75
2019-03-19T21:15:32.048Z,7.13
2019-03-19T21:18:02.625Z,7.30
2019-03-19T21:20:32.412Z,7.03
2019-03-19T21:23:02.608Z,7.10
2019-03-19T21:25:32.462Z,7.23
2019-03-19T21:28:13.208Z,7.72
2019-03-19T21:30:35.533Z,7.42
2019-03-19T21:33:06.381Z,6.87
2019-03-19T21:35:36.149Z,7.75
2019-03-19T21:38:06.005Z,7.50
2019-03-19T21:40:36.845Z,7.30
2019-03-19T21:43:06.945Z,7.67
2019-03-19T21:45:37.390Z,8.15
2019-03-19T21:48:07.108Z,7.83
2019-03-19T21:50:37.662Z,8.73
2019-03-19T21:53:07.740Z,7.42
2019-03-19T21:55:37.481Z,6.70
2019-03-19T21:58:07.375Z,6.75
2019-03-19T22:00:39.387Z,6.87
2019-03-19T22:03:10.587Z,6.93
2019-03-19T22:05:40.798Z,7.07
2019-03-19T22:08:10.528Z,6.70
2019-03-19T22:10:40.351Z,6.30
2019-03-19T22:13:10.078Z,6.30
2019-03-19T22:15:39.777Z,6.30
2019-03-19T22:18:09.742Z,5.90
2019-03-19T22:20:40.268Z,6.75
2019-03-19T22:23:13.189Z,5.97
2019-03-19T22:25:43.035Z,6.53
2019-03-19T22:28:12.941Z,5.78
2019-03-19T22:30:42.891Z,6.45
2019-03-19T22:33:13.008Z,6.00
2019-03-19T22:35:44.814Z,5.87
2019-03-19T22:38:14.998Z,6.43
2019-03-19T22:40:45.046Z,6.47
2019-03-19T22:43:26.103Z,7.60
2019-03-19T22:45:56.333Z,7.37
2019-03-19T22:48:34.097Z,7.37
2019-03-19T22:51:05.785Z,7.15
2019-03-19T22:53:35.532Z,7.20
2019-03-19T22:56:05.752Z,6.73
2019-03-19T22:58:35.621Z,7.00
2019-03-19T23:01:06.815Z,10.82
2019-03-19T23:03:36.571Z,13.65
2019-03-19T23:06:06.545Z,8.40
2019-03-19T23:08:36.400Z,8.10
2019-03-19T23:11:06.593Z,9.90
2019-03-19T23:13:36.729Z,7.00
2019-03-19T23:16:07.509Z,6.53
2019-03-19T23:18:39.975Z,7.17
2019-03-19T23:21:09.856Z,8.08
2019-03-19T23:23:39.546Z,9.30
2019-03-19T23:26:09.345Z,8.73
2019-03-19T23:28:39.107Z,7.42
2019-03-19T23:31:08.879Z,7.40
2019-03-19T23:33:38.595Z,11.33
2019-03-19T23:36:08.502Z,8.55
2019-03-19T23:38:38.238Z,9.80
2019-03-19T23:41:07.931Z,14.50
2019-03-19T23:43:38.130Z,9.90
2019-03-19T23:46:07.871Z,7.62
2019-03-19T23:48:37.984Z,19.23
2019-03-19T23:51:09.614Z,16.55
2019-03-19T23:53:43.550Z,16.95
2019-03-19T23:56:13.299Z,13.13
2019-03-19T23:58:43.303Z,11.53
